Time;durP1;ratioP1;P1;durP2;ratioP2;P2;SDS_P1;SDS_P2;PMS_P1;PMS_P2;Temp;Humidity;BMP_temperature;BMP_pressure;BME280_temperature;BME280_humidity;BME280_pressure;Samples;Min_cycle;Max_cycle;Signal;HPM_P1;HPM_P2
2024/01/18 00:00:35;;;;;;;21.77;7.60;;;-0.50;99.90;;;;;;5036333;28;20489;-55
2024/01/18 00:03:01;;;;;;;18.43;7.83;;;-0.50;99.90;;;;;;5036690;28;20134;-54
2024/01/18 00:05:26;;;;;;;16.37;7.07;;;-0.50;99.90;;;;;;5036451;28;20436;-53
2024/01/18 00:07:52;;;;;;;19.77;7.77;;;-0.50;99.90;;;;;;5034688;28;20104;-56
2024/01/18 00:10:18;;;;;;;19.13;8.37;;;-0.50;99.90;;;;;;5036040;28;20032;-55
2024/01/18 00:12:43;;;;;;;18.23;7.63;;;-0.50;99.90;;;;;;5034815;28;20029;-51
2024/01/18 00:15:09;;;;;;;18.40;8.27;;;-0.50;99.90;;;;;;5035126;28;20030;-50
2024/01/18 00:17:35;;;;;;;22.77;7.67;;;-0.50;99.90;;;;;;5036321;28;20091;-54
2024/01/18 00:20:00;;;;;;;18.83;8.10;;;-0.50;99.90;;;;;;5036472;28;20429;-54
2024/01/18 00:22:26;;;;;;;20.30;8.63;;;-0.50;99.90;;;;;;5035116;28;20026;-55
2024/01/18 00:24:52;;;;;;;17.60;7.93;;;-0.60;99.90;;;;;;5035955;28;20424;-50
2024/01/18 00:27:17;;;;;;;20.80;7.73;;;-0.60;99.90;;;;;;5035480;28;20029;-48
2024/01/18 00:29:43;;;;;;;18.43;7.67;;;-0.60;99.90;;;;;;5035484;28;20121;-54
2024/01/18 00:32:08;;;;;;;17.17;7.77;;;-0.60;99.90;;;;;;5035577;28;20162;-49
2024/01/18 00:34:34;;;;;;;23.13;8.13;;;-0.60;99.90;;;;;;5035561;28;20029;-52
2024/01/18 00:37:00;;;;;;;23.10;8.77;;;-0.60;99.90;;;;;;5035704;28;20022;-52
2024/01/18 00:39:25;;;;;;;21.23;8.80;;;-0.60;99.90;;;;;;5035157;28;20068;-53
2024/01/18 00:41:51;;;;;;;19.90;8.77;;;-0.50;99.90;;;;;;5034431;28;20087;-54
2024/01/18 00:44:17;;;;;;;19.33;8.37;;;-0.50;99.90;;;;;;5035504;28;20147;-52
2024/01/18 00:46:42;;;;;;;23.33;9.43;;;-0.50;99.90;;;;;;5035566;28;20506;-53
2024/01/18 00:49:08;;;;;;;23.93;8.83;;;-0.40;99.90;;;;;;5035624;28;20025;-53
2024/01/18 00:51:33;;;;;;;19.07;7.73;;;-0.40;99.90;;;;;;5035687;28;20069;-55
2024/01/18 00:53:59;;;;;;;15.17;8.00;;;-0.40;99.90;;;;;;5035960;28;20116;-51
2024/01/18 00:56:24;;;;;;;23.83;8.90;;;-0.50;99.90;;;;;;5035771;28;20108;-53
2024/01/18 00:58:50;;;;;;;19.80;8.53;;;-0.50;99.90;;;;;;5035704;28;20030;-54
2024/01/18 01:01:16;;;;;;;19.83;8.70;;;-0.50;99.90;;;;;;5034755;28;20505;-55
2024/01/18 01:03:42;;;;;;;23.90;7.70;;;-0.50;99.90;;;;;;5034987;28;20497;-53
2024/01/18 01:06:11;;;;;;;18.40;7.70;;;-0.50;99.90;;;;;;5035198;28;20026;-55
2024/01/18 01:08:37;;;;;;;20.85;8.25;;;-0.50;99.90;;;;;;5035181;28;20039;-55
2024/01/18 01:11:08;;;;;;;24.90;8.60;;;-0.50;99.90;;;;;;5035261;28;20037;-54
2024/01/18 01:13:34;;;;;;;22.13;8.20;;;-0.40;99.90;;;;;;5035195;28;20056;-53
2024/01/18 01:16:00;;;;;;;19.63;8.17;;;-0.50;99.90;;;;;;5034785;28;20199;-55
2024/01/18 01:18:25;;;;;;;17.00;8.50;;;-0.50;99.90;;;;;;5035734;28;20025;-55
2024/01/18 01:20:51;;;;;;;17.93;8.13;;;-0.50;99.90;;;;;;5035155;28;20026;-53
2024/01/18 01:23:16;;;;;;;19.37;8.43;;;-0.50;99.90;;;;;;5033329;28;20025;-55
2024/01/18 01:25:42;;;;;;;19.40;8.53;;;-0.40;99.90;;;;;;5033834;28;20025;-54
2024/01/18 01:28:08;;;;;;;22.00;8.67;;;-0.40;99.90;;;;;;5035110;28;20029;-52
2024/01/18 01:30:33;;;;;;;23.43;7.93;;;-0.40;99.90;;;;;;5034567;28;20069;-52
2024/01/18 01:32:59;;;;;;;16.37;8.37;;;-0.40;99.90;;;;;;5034580;28;20376;-53
2024/01/18 01:35:24;;;;;;;17.37;8.20;;;-0.40;99.90;;;;;;5034728;28;20334;-53
2024/01/18 01:37:50;;;;;;;17.87;8.00;;;-0.40;99.90;;;;;;5035079;28;20040;-54
2024/01/18 01:40:16;;;;;;;20.57;8.43;;;-0.40;99.90;;;;;;5034452;28;20069;-51
2024/01/18 01:42:42;;;;;;;21.20;8.73;;;-0.40;99.90;;;;;;5033832;28;20026;-51
2024/01/18 01:45:07;;;;;;;21.93;8.67;;;-0.40;99.90;;;;;;5034285;28;20033;-51
2024/01/18 01:47:33;;;;;;;17.83;8.77;;;-0.40;99.90;;;;;;5034973;28;20041;-54
2024/01/18 01:50:00;;;;;;;19.23;8.67;;;-0.50;99.90;;;;;;5034652;28;20037;-51
2024/01/18 01:52:28;;;;;;;22.40;8.50;;;-0.40;99.90;;;;;;5034573;28;20038;-55
2024/01/18 01:54:54;;;;;;;22.73;8.80;;;-0.40;99.90;;;;;;5034869;28;20037;-55
2024/01/18 01:57:20;;;;;;;17.63;9.37;;;-0.40;99.90;;;;;;5034644;28;20026;-55
2024/01/18 01:59:47;;;;;;;17.43;8.77;;;-0.40;99.90;;;;;;5033184;28;20037;-55
2024/01/18 02:02:14;;;;;;;20.73;9.40;;;-0.40;99.90;;;;;;5034382;28;20064;-54
2024/01/18 02:04:40;;;;;;;22.73;8.63;;;-0.40;99.90;;;;;;5035044;28;20040;-51
2024/01/18 02:07:08;;;;;;;19.37;8.70;;;-0.40;99.90;;;;;;5034727;28;20116;-53
2024/01/18 02:09:34;;;;;;;21.63;9.40;;;-0.40;99.90;;;;;;5034780;28;20099;-54
2024/01/18 02:12:02;;;;;;;24.80;9.80;;;-0.40;99.90;;;;;;5034515;28;20029;-54
2024/01/18 02:14:29;;;;;;;22.57;9.33;;;-0.40;99.90;;;;;;5034957;28;20028;-55
2024/01/18 02:16:55;;;;;;;23.10;9.43;;;-0.40;99.90;;;;;;5034793;28;20033;-51
2024/01/18 02:19:21;;;;;;;19.10;8.50;;;-0.50;99.90;;;;;;5034159;28;20116;-55
2024/01/18 02:21:46;;;;;;;21.27;9.03;;;-0.50;99.90;;;;;;5034085;28;20108;-51
2024/01/18 02:24:18;;;;;;;19.90;9.10;;;-0.50;99.90;;;;;;5034332;28;20483;-55
2024/01/18 02:26:44;;;;;;;20.93;8.20;;;-0.50;99.90;;;;;;5034327;28;20398;-55
2024/01/18 02:29:09;;;;;;;17.37;7.83;;;-0.50;99.90;;;;;;5034244;28;20022;-50
2024/01/18 02:31:35;;;;;;;23.03;10.40;;;-0.50;99.90;;;;;;5034116;28;20489;-51
2024/01/18 02:34:06;;;;;;;20.03;9.00;;;-0.50;99.90;;;;;;5034840;28;20028;-53
2024/01/18 02:36:31;;;;;;;19.13;8.97;;;-0.50;99.90;;;;;;5034177;28;20100;-54
2024/01/18 02:38:57;;;;;;;20.53;9.23;;;-0.50;99.90;;;;;;5034072;28;20033;-55
2024/01/18 02:41:23;;;;;;;19.97;9.57;;;-0.50;99.90;;;;;;5034056;28;20072;-52
2024/01/18 02:43:48;;;;;;;23.53;8.67;;;-0.50;99.90;;;;;;5034205;28;20391;-50
2024/01/18 02:46:17;;;;;;;21.30;9.07;;;-0.50;99.90;;;;;;5034095;28;20036;-52
2024/01/18 02:48:43;;;;;;;19.98;8.55;;;-0.50;99.90;;;;;;5034097;28;20072;-54
2024/01/18 02:51:09;;;;;;;25.97;9.33;;;-0.50;99.90;;;;;;5033199;28;20041;-53
2024/01/18 02:53:34;;;;;;;20.70;9.63;;;-0.50;99.90;;;;;;5034308;28;20036;-54
2024/01/18 02:56:00;;;;;;;17.93;8.33;;;-0.60;99.90;;;;;;5034652;28;20494;-53
2024/01/18 02:58:25;;;;;;;18.90;8.67;;;-0.50;99.90;;;;;;5036740;28;20040;-54
2024/01/18 03:00:51;;;;;;;21.83;9.30;;;-0.50;99.90;;;;;;5037519;28;20033;-50
2024/01/18 03:03:19;;;;;;;23.23;9.50;;;-0.50;99.90;;;;;;5037666;28;20179;-52
2024/01/18 03:05:44;;;;;;;23.03;10.17;;;-0.50;99.90;;;;;;5038197;28;20100;-55
2024/01/18 03:08:10;;;;;;;20.30;9.27;;;-0.50;99.90;;;;;;5037629;28;20029;-53
2024/01/18 03:10:36;;;;;;;18.13;8.17;;;-0.50;99.90;;;;;;5037301;28;20083;-55
2024/01/18 03:13:01;;;;;;;21.27;9.03;;;-0.50;99.90;;;;;;5037615;28;20044;-55
2024/01/18 03:15:27;;;;;;;22.77;9.70;;;-0.40;99.90;;;;;;5036308;28;20064;-55
2024/01/18 03:17:52;;;;;;;19.80;9.50;;;-0.50;99.90;;;;;;5038065;28;20039;-55
2024/01/18 03:20:18;;;;;;;22.43;8.73;;;-0.50;99.90;;;;;;5037582;28;20030;-56
2024/01/18 03:22:43;;;;;;;21.97;9.27;;;-0.50;99.90;;;;;;5036013;28;20033;-54
2024/01/18 03:25:09;;;;;;;17.97;8.80;;;-0.40;99.90;;;;;;5036298;28;20041;-53
2024/01/18 03:27:35;;;;;;;19.90;10.20;;;-0.40;99.90;;;;;;5036392;28;20040;-49
2024/01/18 03:30:00;;;;;;;21.70;8.70;;;-0.40;99.90;;;;;;5035754;28;20033;-55
2024/01/18 03:32:26;;;;;;;20.97;10.03;;;-0.40;99.90;;;;;;5037265;28;20041;-51
2024/01/18 03:34:52;;;;;;;20.20;8.93;;;-0.40;99.90;;;;;;5037318;28;20053;-54
2024/01/18 03:37:17;;;;;;;19.67;8.87;;;-0.40;99.90;;;;;;5037445;28;20505;-53
2024/01/18 03:39:43;;;;;;;21.47;9.63;;;-0.50;99.90;;;;;;5036925;28;20029;-53
2024/01/18 03:42:09;;;;;;;21.13;8.83;;;-0.40;99.90;;;;;;5036874;28;20490;-54
2024/01/18 03:44:35;;;;;;;18.67;9.57;;;-0.40;99.90;;;;;;5037203;28;20444;-51
2024/01/18 03:47:00;;;;;;;20.83;9.33;;;-0.40;99.90;;;;;;5035850;28;20034;-53
2024/01/18 03:49:26;;;;;;;20.67;8.80;;;-0.50;99.90;;;;;;5036795;28;20478;-55
2024/01/18 03:51:52;;;;;;;21.80;9.60;;;-0.50;99.90;;;;;;5035257;28;20086;-54
2024/01/18 03:54:20;;;;;;;19.87;8.87;;;-0.50;99.90;;;;;;5036606;28;20033;-53
2024/01/18 03:56:47;;;;;;;24.07;10.47;;;-0.50;99.90;;;;;;5036667;28;20083;-55
2024/01/18 03:59:16;;;;;;;22.47;9.57;;;-0.50;99.90;;;;;;5036449;28;20101;-51
2024/01/18 04:01:43;;;;;;;20.98;9.27;;;-0.50;99.90;;;;;;5036260;28;20061;-53
2024/01/18 04:04:08;;;;;;;19.20;8.63;;;-0.50;99.90;;;;;;5036562;28;20126;-55
2024/01/18 04:06:34;;;;;;;20.97;9.03;;;-0.50;99.90;;;;;;5035290;28;20033;-53
2024/01/18 04:09:00;;;;;;;19.13;9.43;;;-0.40;99.90;;;;;;5036261;28;20038;-51
2024/01/18 04:11:26;;;;;;;18.67;8.50;;;-0.40;99.90;;;;;;5035423;28;20167;-55
2024/01/18 04:13:51;;;;;;;20.43;8.80;;;-0.40;99.90;;;;;;5036947;28;20031;-55
2024/01/18 04:16:18;;;;;;;19.67;9.17;;;-0.50;99.90;;;;;;5035297;28;20376;-52
2024/01/18 04:18:43;;;;;;;22.53;10.07;;;-0.50;99.90;;;;;;5036228;28;20042;-53
2024/01/18 04:21:10;;;;;;;21.93;9.23;;;-0.50;99.90;;;;;;5036446;28;20034;-54
2024/01/18 04:23:35;;;;;;;32.57;10.50;;;-0.50;99.90;;;;;;5034931;28;20029;-51
2024/01/18 04:26:03;;;;;;;24.23;10.63;;;-0.50;99.90;;;;;;5035889;28;20109;-53
2024/01/18 04:28:28;;;;;;;21.47;9.60;;;-0.60;99.90;;;;;;5036000;28;20034;-50
2024/01/18 04:30:54;;;;;;;22.63;9.30;;;-0.60;99.90;;;;;;5035732;28;20087;-55
2024/01/18 04:33:19;;;;;;;24.57;10.47;;;-0.60;99.90;;;;;;5036151;28;20025;-51
2024/01/18 04:35:45;;;;;;;19.57;9.70;;;-0.70;99.90;;;;;;5035909;28;20029;-54
2024/01/18 04:38:11;;;;;;;20.63;10.10;;;-0.60;99.90;;;;;;5035701;28;20109;-55
2024/01/18 04:40:36;;;;;;;26.40;11.40;;;-0.60;99.90;;;;;;5035748;28;20065;-53
2024/01/18 04:43:02;;;;;;;23.90;10.03;;;-0.60;99.90;;;;;;5035904;28;20113;-52
2024/01/18 04:45:27;;;;;;;25.17;10.23;;;-0.60;99.90;;;;;;5035997;28;20110;-50
2024/01/18 04:47:54;;;;;;;25.00;11.20;;;-0.60;99.90;;;;;;5035065;28;20025;-55
2024/01/18 04:50:26;;;;;;;23.23;9.93;;;-0.60;99.90;;;;;;5034329;28;20033;-55
2024/01/18 04:52:54;;;;;;;25.07;10.77;;;-0.50;99.90;;;;;;5036130;28;20029;-54
2024/01/18 04:55:20;;;;;;;28.65;11.15;;;-0.50;99.90;;;;;;5035819;28;20039;-54
2024/01/18 04:57:48;;;;;;;25.27;10.70;;;-0.50;99.90;;;;;;5035680;28;20037;-56
2024/01/18 05:00:14;;;;;;;23.73;11.30;;;-0.60;99.90;;;;;;5035861;28;20060;-55
2024/01/18 05:02:40;;;;;;;21.47;9.60;;;-0.60;99.90;;;;;;5035317;28;20033;-53
2024/01/18 05:05:08;;;;;;;22.37;10.17;;;-0.60;99.90;;;;;;5035274;28;20390;-55
2024/01/18 05:07:37;;;;;;;21.40;10.27;;;-0.60;99.90;;;;;;5035945;28;20363;-54
2024/01/18 05:10:06;;;;;;;;;;;-0.60;99.90;;;;;;5036378;28;20072;-55
2024/01/18 05:12:32;;;;;;;28.38;10.63;;;-0.60;99.90;;;;;;5035071;28;19913;-55
2024/01/18 05:14:58;;;;;;;23.53;10.60;;;-0.60;99.90;;;;;;5034211;28;20464;-55
2024/01/18 05:17:34;;;;;;;23.50;11.00;;;-0.50;99.90;;;;;;5034947;28;20486;-54
2024/01/18 05:19:59;;;;;;;20.00;10.17;;;-0.60;99.90;;;;;;5034425;28;20084;-54
2024/01/18 05:22:25;;;;;;;27.73;11.87;;;-0.60;99.90;;;;;;5034960;28;20034;-55
2024/01/18 05:24:51;;;;;;;27.47;11.43;;;-0.60;99.90;;;;;;5034708;28;20029;-54
2024/01/18 05:27:17;;;;;;;24.60;10.87;;;-0.60;99.90;;;;;;5035330;28;20448;-54
2024/01/18 05:29:43;;;;;;;22.43;10.60;;;-0.60;99.90;;;;;;5035105;28;20029;-51
2024/01/18 05:32:08;;;;;;;25.07;10.03;;;-0.60;99.90;;;;;;5034862;28;20032;-52
2024/01/18 05:34:34;;;;;;;20.93;10.13;;;-0.60;99.90;;;;;;5033642;28;20144;-54
2024/01/18 05:37:00;;;;;;;29.50;11.57;;;-0.60;99.90;;;;;;5034789;28;20029;-54
2024/01/18 05:39:25;;;;;;;30.17;11.03;;;-0.60;99.90;;;;;;5034928;28;20036;-54
2024/01/18 05:41:51;;;;;;;23.40;10.20;;;-0.60;99.90;;;;;;5034733;28;20407;-54
2024/01/18 05:44:17;;;;;;;21.93;10.50;;;-0.60;99.90;;;;;;5035476;28;20069;-54
2024/01/18 05:46:42;;;;;;;29.30;9.97;;;-0.60;99.90;;;;;;5034935;28;20026;-52
2024/01/18 05:49:08;;;;;;;26.57;10.73;;;-0.60;99.90;;;;;;5034755;28;20095;-56
2024/01/18 05:51:34;;;;;;;20.67;9.53;;;-0.60;99.90;;;;;;5034953;28;20041;-55
2024/01/18 05:54:00;;;;;;;23.50;10.97;;;-0.60;99.90;;;;;;5034913;28;20061;-55
2024/01/18 05:56:26;;;;;;;23.70;10.93;;;-0.60;99.90;;;;;;5035538;28;20041;-51
2024/01/18 05:58:51;;;;;;;23.37;10.40;;;-0.60;99.90;;;;;;5034875;28;20080;-53
2024/01/18 06:01:17;;;;;;;20.57;10.10;;;-0.60;99.90;;;;;;5035231;28;20036;-54
2024/01/18 06:03:43;;;;;;;20.23;9.97;;;-0.60;99.90;;;;;;5034832;28;20030;-51
2024/01/18 06:06:10;;;;;;;27.37;11.23;;;-0.60;99.90;;;;;;5034768;28;20076;-55
2024/01/18 06:08:36;;;;;;;24.47;10.43;;;-0.60;99.90;;;;;;5034399;28;20474;-55
2024/01/18 06:11:02;;;;;;;23.63;12.00;;;-0.60;99.90;;;;;;5034504;28;20452;-56
2024/01/18 06:13:28;;;;;;;27.83;11.47;;;-0.60;99.90;;;;;;5034874;28;20045;-55
2024/01/18 06:15:53;;;;;;;24.93;11.30;;;-0.60;99.90;;;;;;5034878;28;20034;-54
2024/01/18 06:18:19;;;;;;;25.57;10.67;;;-0.60;99.90;;;;;;5034282;28;20072;-54
2024/01/18 06:20:44;;;;;;;21.80;10.33;;;-0.60;99.90;;;;;;5033986;28;20022;-55
2024/01/18 06:23:10;;;;;;;24.30;10.73;;;-0.60;99.90;;;;;;5033922;28;20035;-54
2024/01/18 06:25:36;;;;;;;22.27;10.47;;;-0.60;99.90;;;;;;5034286;28;20034;-55
2024/01/18 06:28:03;;;;;;;20.83;10.07;;;-0.60;99.90;;;;;;5035036;28;20032;-55
2024/01/18 06:30:29;;;;;;;23.00;10.37;;;-0.60;99.90;;;;;;5035552;28;20284;-55
2024/01/18 06:32:55;;;;;;;23.77;11.23;;;-0.70;99.90;;;;;;5037680;28;20033;-54
2024/01/18 06:35:22;;;;;;;24.73;11.20;;;-0.70;99.90;;;;;;5037247;28;20120;-55
2024/01/18 06:37:48;;;;;;;25.87;11.97;;;-0.80;99.90;;;;;;5038261;28;20398;-56
2024/01/18 06:40:15;;;;;;;22.80;11.07;;;-0.90;99.90;;;;;;5038322;28;20042;-55
2024/01/18 06:42:40;;;;;;;27.43;10.27;;;-1.10;99.90;;;;;;5037999;28;20076;-53
2024/01/18 06:45:07;;;;;;;25.87;11.17;;;-1.10;99.90;;;;;;5038257;28;20021;-55
2024/01/18 06:47:33;;;;;;;23.90;10.40;;;-1.20;99.90;;;;;;5037229;28;20029;-55
2024/01/18 06:49:58;;;;;;;24.13;11.27;;;-1.30;99.90;;;;;;5036978;28;20045;-50
2024/01/18 06:52:24;;;;;;;20.57;10.17;;;-1.40;99.90;;;;;;5036596;28;20037;-56
2024/01/18 06:54:50;;;;;;;25.27;11.47;;;-1.40;99.90;;;;;;5037766;28;20029;-54
2024/01/18 06:57:16;;;;;;;20.63;9.33;;;-1.50;99.90;;;;;;5037230;28;20517;-53
2024/01/18 06:59:48;;;;;;;21.17;10.50;;;-1.50;99.90;;;;;;5037126;28;20035;-56
2024/01/18 07:02:14;;;;;;;21.80;10.03;;;-1.50;99.90;;;;;;5036018;28;20152;-54
2024/01/18 07:04:39;;;;;;;22.80;10.20;;;-1.50;99.90;;;;;;5037408;28;20061;-54
2024/01/18 07:07:05;;;;;;;23.47;10.73;;;-1.60;99.90;;;;;;5037246;28;20108;-53
2024/01/18 07:09:32;;;;;;;23.83;10.37;;;-1.70;99.90;;;;;;5037088;28;20049;-54
2024/01/18 07:11:58;;;;;;;26.87;11.27;;;-1.70;99.90;;;;;;5036908;28;20064;-53
2024/01/18 07:14:24;;;;;;;28.27;11.63;;;-1.70;99.90;;;;;;5036458;28;20166;-55
2024/01/18 07:16:49;;;;;;;23.67;10.33;;;-1.80;99.90;;;;;;5036491;28;20026;-55
2024/01/18 07:19:15;;;;;;;23.83;11.90;;;-1.90;99.90;;;;;;5037822;28;20030;-50
2024/01/18 07:21:41;;;;;;;27.27;11.13;;;-1.90;99.90;;;;;;5037431;28;20381;-56
2024/01/18 07:24:06;;;;;;;27.27;11.10;;;-1.90;99.90;;;;;;5036887;28;20041;-55
2024/01/18 07:26:32;;;;;;;30.27;11.50;;;-2.00;99.90;;;;;;5037371;28;20022;-54
2024/01/18 07:28:57;;;;;;;31.43;11.30;;;-2.00;99.90;;;;;;5037863;28;20351;-55
2024/01/18 07:31:23;;;;;;;27.80;11.83;;;-2.10;99.90;;;;;;5037256;28;20045;-54
2024/01/18 07:33:50;;;;;;;31.93;11.70;;;-2.10;99.90;;;;;;5037292;28;20498;-54
2024/01/18 07:36:17;;;;;;;22.07;10.67;;;-2.20;99.90;;;;;;5036978;28;20083;-55
2024/01/18 07:38:43;;;;;;;26.70;10.73;;;-2.30;99.90;;;;;;5036690;28;20045;-53
2024/01/18 07:41:09;;;;;;;30.00;11.17;;;-2.20;99.90;;;;;;5036694;28;20030;-53
2024/01/18 07:43:35;;;;;;;28.63;12.20;;;-2.30;99.90;;;;;;5034607;28;20083;-53
2024/01/18 07:46:01;;;;;;;26.53;10.73;;;-2.40;99.90;;;;;;5036821;28;20478;-50
2024/01/18 07:48:26;;;;;;;25.87;10.60;;;-2.40;99.90;;;;;;5036881;28;20048;-56
2024/01/18 07:50:52;;;;;;;28.37;11.10;;;-2.40;99.90;;;;;;5036462;28;20045;-54
2024/01/18 07:53:18;;;;;;;25.03;10.30;;;-2.50;99.90;;;;;;5036688;28;20025;-54
2024/01/18 07:55:44;;;;;;;30.70;11.63;;;-2.50;99.90;;;;;;5036416;28;20040;-54
2024/01/18 07:58:10;;;;;;;25.43;11.00;;;-2.50;99.90;;;;;;5036951;28;20426;-52
2024/01/18 08:00:36;;;;;;;25.90;11.13;;;-2.60;99.90;;;;;;5034993;28;20037;-52
2024/01/18 08:03:02;;;;;;;26.77;11.27;;;-2.60;99.90;;;;;;5035897;28;20490;-54
2024/01/18 08:05:28;;;;;;;23.70;11.20;;;-2.60;99.90;;;;;;5036730;28;20026;-54
2024/01/18 08:07:53;;;;;;;23.80;11.60;;;-2.60;99.90;;;;;;5036659;28;20075;-53
2024/01/18 08:10:19;;;;;;;23.60;10.87;;;-2.60;99.90;;;;;;5036451;28;20041;-50
2024/01/18 08:12:45;;;;;;;25.83;11.67;;;-2.50;99.90;;;;;;5036113;28;20033;-49
2024/01/18 08:15:14;;;;;;;26.40;10.63;;;-2.60;99.90;;;;;;5035970;28;20029;-53
2024/01/18 08:17:39;;;;;;;24.10;10.38;;;-2.60;99.90;;;;;;5036662;28;20029;-54
2024/01/18 08:20:12;;;;;;;29.93;10.53;;;-2.50;99.90;;;;;;5036130;28;20534;-52
2024/01/18 08:22:42;;;;;;;27.80;11.07;;;-2.50;99.90;;;;;;5035814;28;20095;-53
2024/01/18 08:25:10;;;;;;;25.35;11.15;;;-2.40;99.90;;;;;;5035987;28;20455;-54
2024/01/18 08:27:37;;;;;;;30.57;11.10;;;-2.40;99.90;;;;;;5035819;28;20061;-55
2024/01/18 08:30:05;;;;;;;29.33;11.07;;;-2.40;99.90;;;;;;5035934;28;20483;-53
2024/01/18 08:32:34;;;;;;;29.10;10.87;;;-2.30;99.90;;;;;;5035970;28;20041;-51
2024/01/18 08:35:03;;;;;;;29.90;12.05;;;-2.20;99.90;;;;;;5034987;28;20076;-53
2024/01/18 08:37:29;;;;;;;29.02;11.30;;;-2.10;99.90;;;;;;5035983;28;20040;-52
2024/01/18 08:39:54;;;;;;;30.03;11.80;;;-2.00;99.90;;;;;;5035966;28;20275;-54
2024/01/18 08:42:20;;;;;;;26.70;12.07;;;-2.00;99.90;;;;;;5035513;28;20112;-54
2024/01/18 08:44:46;;;;;;;24.60;11.17;;;-1.90;99.90;;;;;;5035848;28;20494;-53
2024/01/18 08:47:15;;;;;;;27.60;11.93;;;-1.80;99.90;;;;;;5034427;28;20041;-51
2024/01/18 08:49:40;;;;;;;29.95;12.43;;;-1.70;99.90;;;;;;5036489;28;20485;-54
2024/01/18 08:52:07;;;;;;;24.03;10.97;;;-1.60;99.90;;;;;;5034596;28;20033;-52
2024/01/18 08:54:32;;;;;;;26.40;10.80;;;-1.60;99.90;;;;;;5035006;28;20475;-52
2024/01/18 08:56:58;;;;;;;27.33;11.07;;;-1.50;99.90;;;;;;5035680;28;20079;-54
2024/01/18 08:59:24;;;;;;;27.60;10.90;;;-1.50;99.90;;;;;;5034235;28;20045;-54
2024/01/18 09:01:50;;;;;;;22.17;9.73;;;-1.40;99.90;;;;;;5035064;28;20028;-50
2024/01/18 09:04:16;;;;;;;29.63;11.00;;;-1.30;99.90;;;;;;5035099;28;20479;-51
2024/01/18 09:06:45;;;;;;;19.90;10.37;;;-1.20;99.90;;;;;;5035296;28;20029;-52
2024/01/18 09:09:11;;;;;;;24.48;9.93;;;-1.10;99.90;;;;;;5033868;28;20120;-56
2024/01/18 09:11:39;;;;;;;25.60;9.93;;;-1.00;99.90;;;;;;5035241;28;20036;-55
2024/01/18 09:14:06;;;;;;;21.15;10.65;;;-1.00;99.90;;;;;;5035270;28;20228;-55
2024/01/18 09:16:32;;;;;;;30.90;10.07;;;-0.90;99.90;;;;;;5035949;28;20075;-55
2024/01/18 09:19:00;;;;;;;23.50;9.13;;;-0.80;99.90;;;;;;5033496;28;20305;-54
2024/01/18 09:21:26;;;;;;;19.92;8.98;;;-0.70;99.90;;;;;;5033376;28;20044;-54
2024/01/18 09:23:52;;;;;;;22.43;9.23;;;-0.60;99.90;;;;;;5033253;28;20041;-50
2024/01/18 09:26:18;;;;;;;17.97;9.13;;;-0.50;99.90;;;;;;5034885;28;20057;-54
2024/01/18 09:28:44;;;;;;;20.53;8.43;;;-0.40;99.90;;;;;;5034274;28;20025;-50
2024/01/18 09:31:10;;;;;;;21.83;8.73;;;-0.20;99.90;;;;;;5034963;28;20116;-52
2024/01/18 09:33:39;;;;;;;19.07;8.47;;;-0.10;99.90;;;;;;5035051;28;20437;-51
2024/01/18 09:36:06;;;;;;;20.48;8.88;;;0.00;99.90;;;;;;5035007;28;20030;-52
2024/01/18 09:38:33;;;;;;;19.27;8.47;;;0.20;99.90;;;;;;5034707;28;20478;-51
2024/01/18 09:41:09;;;;;;;21.93;8.70;;;0.40;99.90;;;;;;5034464;28;20037;-50
2024/01/18 09:43:36;;;;;;;18.27;8.60;;;0.70;99.90;;;;;;5034364;28;20044;-54
2024/01/18 09:46:05;;;;;;;16.10;7.27;;;1.00;99.90;;;;;;5034396;28;20033;-50
2024/01/18 09:48:35;;;;;;;16.08;7.03;;;1.20;99.90;;;;;;5034557;28;20422;-50
2024/01/18 09:51:02;;;;;;;12.35;6.00;;;1.50;99.90;;;;;;5034026;28;20075;-53
2024/01/18 09:53:28;;;;;;;14.23;5.40;;;2.10;99.90;;;;;;5034076;28;20371;-51
2024/01/18 09:56:03;;;;;;;8.90;4.90;;;3.40;99.90;;;;;;5034310;28;20131;-50
2024/01/18 09:58:30;;;;;;;12.03;4.80;;;4.90;99.90;;;;;;5034183;28;20044;-51
2024/01/18 10:00:57;;;;;;;10.40;4.73;;;6.90;99.90;;;;;;5034026;28;20394;-56
2024/01/18 10:03:24;;;;;;;11.32;4.88;;;8.50;99.90;;;;;;5034679;28;20043;-51
2024/01/18 10:05:49;;;;;;;9.57;4.85;;;9.70;99.90;;;;;;5033946;28;20475;-51
2024/01/18 10:08:15;;;;;;;10.38;5.18;;;10.00;98.60;;;;;;5036812;28;20025;-49
2024/01/18 10:10:42;;;;;;;10.82;4.75;;;10.50;99.60;;;;;;5037305;28;20065;-55
2024/01/18 10:13:11;;;;;;;9.75;4.95;;;11.30;99.00;;;;;;5038600;28;20083;-54
2024/01/18 10:15:37;;;;;;;13.80;5.97;;;12.50;95.00;;;;;;5038478;28;20490;-52
2024/01/18 10:18:05;;;;;;;11.02;5.40;;;13.10;91.50;;;;;;5038065;28;20037;-51
2024/01/18 10:20:31;;;;;;;7.43;4.10;;;13.40;89.60;;;;;;5038135;28;20025;-54
2024/01/18 10:22:58;;;;;;;7.63;4.15;;;12.90;87.80;;;;;;5038294;28;20135;-50
2024/01/18 10:25:26;;;;;;;10.45;4.18;;;13.00;90.30;;;;;;5038591;28;20397;-50
2024/01/18 10:27:56;;;;;;;15.98;4.55;;;13.40;87.80;;;;;;5038584;28;20041;-50
2024/01/18 10:30:22;;;;;;;9.90;4.53;;;13.70;86.50;;;;;;5038042;28;20371;-53
2024/01/18 10:32:48;;;;;;;8.93;3.70;;;14.30;85.80;;;;;;5038117;28;20429;-51
2024/01/18 10:35:25;;;;;;;6.70;3.00;;;14.60;82.70;;;;;;5036604;28;20405;-53
2024/01/18 10:38:01;;;;;;;5.93;2.70;;;14.60;78.90;;;;;;5038380;28;20048;-51
2024/01/18 10:40:29;;;;;;;4.35;2.28;;;14.60;78.10;;;;;;5037749;28;20091;-50
2024/01/18 10:42:55;;;;;;;4.78;2.38;;;14.20;77.40;;;;;;5037824;28;20026;-53
2024/01/18 10:45:20;;;;;;;6.68;2.67;;;13.90;78.70;;;;;;5037758;28;20455;-55
2024/01/18 10:47:47;;;;;;;5.60;2.60;;;14.00;76.70;;;;;;5036456;28;20045;-54
2024/01/18 10:50:12;;;;;;;7.03;2.65;;;13.40;78.40;;;;;;5037573;28;20037;-53
2024/01/18 10:52:40;;;;;;;5.50;3.00;;;13.00;80.50;;;;;;5037672;28;20113;-56
2024/01/18 10:55:08;;;;;;;4.60;2.67;;;13.20;80.50;;;;;;5037556;28;20069;-56
2024/01/18 10:57:34;;;;;;;5.38;2.80;;;13.20;81.40;;;;;;5037778;28;20436;-55
2024/01/18 11:00:00;;;;;;;5.55;3.33;;;13.60;80.40;;;;;;5037681;28;20038;-50
2024/01/18 11:02:26;;;;;;;8.10;4.05;;;14.00;77.90;;;;;;5037510;28;20029;-52
2024/01/18 11:04:53;;;;;;;6.28;3.35;;;14.10;77.40;;;;;;5037674;28;20087;-53
2024/01/18 11:07:20;;;;;;;13.10;4.78;;;13.90;80.90;;;;;;5037504;28;20037;-54
2024/01/18 11:09:46;;;;;;;8.68;4.57;;;14.80;77.50;;;;;;5036965;28;20036;-51
2024/01/18 11:12:13;;;;;;;11.35;4.55;;;14.50;77.70;;;;;;5037347;28;20033;-52
2024/01/18 11:14:40;;;;;;;10.98;4.40;;;13.90;80.60;;;;;;5037619;28;20061;-55
2024/01/18 11:17:15;;;;;;;7.95;4.63;;;14.90;78.00;;;;;;5037506;28;20057;-54
2024/01/18 11:19:43;;;;;;;10.75;4.20;;;15.00;76.50;;;;;;5035788;28;20135;-54
2024/01/18 11:22:10;;;;;;;7.32;3.83;;;14.40;79.10;;;;;;5035586;28;20049;-54
2024/01/18 11:24:37;;;;;;;6.78;3.50;;;13.90;81.20;;;;;;5037135;28;20037;-55
2024/01/18 11:27:24;;;;;;;7.43;3.60;;;14.20;80.00;;;;;;5036982;28;20087;-54
2024/01/18 11:29:50;;;;;;;7.82;3.75;;;14.00;79.20;;;;;;5036987;28;20037;-55
2024/01/18 11:32:19;;;;;;;8.95;3.88;;;14.20;78.30;;;;;;5036392;28;20022;-54
2024/01/18 11:34:45;;;;;;;10.02;4.72;;;14.90;77.10;;;;;;5037149;28;20022;-51
2024/01/18 11:37:16;;;;;;;8.50;4.25;;;15.50;75.70;;;;;;5036756;28;20037;-56
2024/01/18 11:39:47;;;;;;;9.57;4.30;;;15.40;74.40;;;;;;5036501;28;20040;-53
2024/01/18 11:42:26;;;;;;;7.35;4.25;;;15.00;75.20;;;;;;5036903;28;20029;-54
2024/01/18 11:45:07;;;;;;;9.23;3.90;;;14.80;76.50;;;;;;5036815;28;20033;-52
2024/01/18 11:47:35;;;;;;;9.02;4.15;;;14.50;77.00;;;;;;5036675;28;20034;-52
2024/01/18 11:50:05;;;;;;;7.82;3.63;;;14.10;77.10;;;;;;5036765;28;20494;-55
2024/01/18 11:52:33;;;;;;;9.15;3.50;;;13.40;77.40;;;;;;5036851;28;20167;-52
2024/01/18 11:54:59;;;;;;;5.78;2.80;;;12.20;81.30;;;;;;5037180;28;20116;-51
2024/01/18 11:57:25;;;;;;;5.07;2.65;;;11.10;85.40;;;;;;5035569;28;20044;-55
2024/01/18 11:59:51;;;;;;;6.20;2.92;;;10.60;88.10;;;;;;5036466;28;20037;-52
2024/01/18 12:02:17;;;;;;;6.07;2.75;;;11.00;89.30;;;;;;5036520;28;20021;-51
2024/01/18 12:04:43;;;;;;;5.70;2.45;;;12.10;86.40;;;;;;5036887;28;20079;-54
2024/01/18 12:07:11;;;;;;;8.05;2.72;;;13.00;81.00;;;;;;5035012;28;20081;-53
2024/01/18 12:09:37;;;;;;;4.80;2.45;;;13.40;80.00;;;;;;5036389;28;20490;-52
2024/01/18 12:12:04;;;;;;;4.85;2.38;;;13.70;77.20;;;;;;5036099;28;20037;-52
2024/01/18 12:14:30;;;;;;;5.25;2.40;;;13.60;76.20;;;;;;5035960;28;20443;-55
2024/01/18 12:16:56;;;;;;;5.88;2.92;;;12.50;78.20;;;;;;5036036;28;20044;-50
2024/01/18 12:19:38;;;;;;;7.18;2.58;;;11.60;80.30;;;;;;5036378;28;20045;-50
2024/01/18 12:22:10;;;;;;;4.32;2.38;;;10.10;85.90;;;;;;5036115;28;20048;-54
2024/01/18 12:24:36;;;;;;;8.32;2.60;;;9.10;90.60;;;;;;5034924;28;20095;-53
2024/01/18 12:27:04;;;;;;;5.07;2.90;;;8.40;91.60;;;;;;5035670;28;20049;-55
2024/01/18 12:29:31;;;;;;;5.38;1.63;;;8.00;92.60;;;;;;5035439;28;20034;-51
2024/01/18 12:31:57;;;;;;;5.60;1.83;;;8.40;92.90;;;;;;5035620;28;20030;-54